Marietta, GA (30066)

3:47 PM EDT on July 26, 2016 (GMT -0400)
Stockton's Chase (Shallowford and Blackwell) | | Change Station

Elev 1005 ft 34.05 °N, 84.50 °W | Updated 2 minutes ago

Scattered Clouds
Scattered Clouds
91.6 °F
Feels Like 106 °F
N
0.0
Wind Variable Wind from North

Today
High -- | Low -- °F
--% Chance of Precip.
Yesterday
High -- | Low -- °F
Precip. -- in
Pressure 29.98 in
Visibility 10.0 miles
Clouds Scattered Clouds 4500 ft
Heat Index 106 °F
Dew Point 77 °F
Humidity 63%
Rainfall 0.00 in
Snow Depth Not available.
6:45 AM 8:43 PM
Waning Gibbous, 51% visible
METAR KRYY 261847Z 29006KT 10SM SCT045 33/21 A2998
Pressure 29.98 in
Visibility 10.0 miles
Clouds Scattered Clouds 4500 ft
Heat Index 106 °F
Dew Point 77 °F
Humidity 63%
Rainfall 0.00 in
Snow Depth Not available.
6:45 AM 8:43 PM
Waning Gibbous, 51% visible
METAR KRYY 261847Z 29006KT 10SM SCT045 33/21 A2998

10-Day Weather Forecast

Almanac

Astronomy

Jul. 26, 2016 Rise Set
Actual Time
Civil Twilight
Nautical Twilight
Astronomical Twilight
Moon
Length of Visible Light
Length of Day
Tomorrow will be .
, % of the Moon is Illuminated

Today's Extremes

State Highs State Lows

Community

WunderPhotos

Upload Photos

1,927,667 photos uploaded!

WunderBlog® & News

Nearby

Air Quality

  Air Quality AQ Index Pollutant
Not available.

Snow Depth

Station Depth Elevation

Earthquake Activity

City Distance Mag. Time & Date
Minimum magnitude displayed is 2.5.

Coastal Water Temperatures

Place Temperature

Stations

Nearby Weather Stations

Station Location Temp. Windchill Dew Point Humidity Wind Precip. Elev Updated Type
                   

Watches & Warnings

There are currently no watches in effect.